sensor_id;sensor_type;location;lat;lon;timestamp;P1;P2;P0
65361;PMS5003;51961;54.960;73.462;2022-07-24T00:00:51;5.00;5.00;0.00
65361;PMS5003;51961;54.960;73.462;2022-07-24T00:03:59;4.00;4.00;1.00
65361;PMS5003;51961;54.960;73.462;2022-07-24T00:07:13;4.25;4.25;2.25
65361;PMS5003;51961;54.960;73.462;2022-07-24T00:10:25;5.50;5.50;3.00
65361;PMS5003;51961;54.960;73.462;2022-07-24T00:13:27;6.00;6.00;2.00
65361;PMS5003;51961;54.960;73.462;2022-07-24T00:16:29;5.00;5.00;2.00
65361;PMS5003;51961;54.960;73.462;2022-07-24T00:19:41;4.25;4.25;2.00
65361;PMS5003;51961;54.960;73.462;2022-07-24T00:22:44;4.00;4.00;1.00
65361;PMS5003;51961;54.960;73.462;2022-07-24T00:25:46;1.00;1.00;0.00
65361;PMS5003;51961;54.960;73.462;2022-07-24T00:28:59;2.50;1.75;0.00
65361;PMS5003;51961;54.960;73.462;2022-07-24T00:32:07;3.25;2.50;0.00
65361;PMS5003;51961;54.960;73.462;2022-07-24T00:35:10;1.00;1.00;0.00
65361;PMS5003;51961;54.960;73.462;2022-07-24T00:38:23;3.00;2.00;0.00
65361;PMS5003;51961;54.960;73.462;2022-07-24T00:41:25;3.00;2.00;0.00
65361;PMS5003;51961;54.960;73.462;2022-07-24T00:44:27;3.00;2.75;0.00
65361;PMS5003;51961;54.960;73.462;2022-07-24T00:47:30;2.00;2.00;0.00
65361;PMS5003;51961;54.960;73.462;2022-07-24T00:50:37;3.00;3.00;0.00
65361;PMS5003;51961;54.960;73.462;2022-07-24T00:53:39;2.25;2.00;0.00
65361;PMS5003;51961;54.960;73.462;2022-07-24T00:56:42;4.00;3.00;0.00
65361;PMS5003;51961;54.960;73.462;2022-07-24T00:59:45;3.00;3.00;0.00
65361;PMS5003;51961;54.960;73.462;2022-07-24T01:02:48;3.50;3.25;0.00
65361;PMS5003;51961;54.960;73.462;2022-07-24T01:05:50;3.00;3.00;0.00
65361;PMS5003;51961;54.960;73.462;2022-07-24T01:09:02;3.00;3.00;0.00
65361;PMS5003;51961;54.960;73.462;2022-07-24T01:12:04;6.00;5.00;0.00
65361;PMS5003;51961;54.960;73.462;2022-07-24T01:15:08;5.75;4.00;0.00
65361;PMS5003;51961;54.960;73.462;2022-07-24T01:18:21;7.25;5.75;1.75
65361;PMS5003;51961;54.960;73.462;2022-07-24T01:21:24;6.00;5.00;0.00
65361;PMS5003;51961;54.960;73.462;2022-07-24T01:24:26;4.75;3.75;0.00
65361;PMS5003;51961;54.960;73.462;2022-07-24T01:27:29;4.50;4.50;1.00
65361;PMS5003;51961;54.960;73.462;2022-07-24T01:30:32;4.00;2.75;0.00
65361;PMS5003;51961;54.960;73.462;2022-07-24T01:33:44;4.00;2.00;0.00
65361;PMS5003;51961;54.960;73.462;2022-07-24T01:36:46;4.33;2.00;0.00
65361;PMS5003;51961;54.960;73.462;2022-07-24T01:39:49;1.00;1.00;0.00
65361;PMS5003;51961;54.960;73.462;2022-07-24T01:42:51;4.00;3.33;0.00
65361;PMS5003;51961;54.960;73.462;2022-07-24T01:45:54;4.50;2.50;0.50
65361;PMS5003;51961;54.960;73.462;2022-07-24T01:48:56;4.00;3.00;0.00
65361;PMS5003;51961;54.960;73.462;2022-07-24T01:51:59;3.50;1.25;0.25
65361;PMS5003;51961;54.960;73.462;2022-07-24T01:55:01;2.00;2.00;0.00
65361;PMS5003;51961;54.960;73.462;2022-07-24T01:58:13;1.00;1.00;0.00
65361;PMS5003;51961;54.960;73.462;2022-07-24T02:01:15;1.25;1.25;0.00
65361;PMS5003;51961;54.960;73.462;2022-07-24T02:04:17;1.00;1.00;0.00
65361;PMS5003;51961;54.960;73.462;2022-07-24T02:07:24;1.00;1.00;0.00
65361;PMS5003;51961;54.960;73.462;2022-07-24T02:10:31;0.50;0.50;0.00
65361;PMS5003;51961;54.960;73.462;2022-07-24T02:13:33;0.00;0.00;0.00
65361;PMS5003;51961;54.960;73.462;2022-07-24T02:16:45;0.00;0.00;0.00
65361;PMS5003;51961;54.960;73.462;2022-07-24T02:19:52;0.00;0.00;0.00
65361;PMS5003;51961;54.960;73.462;2022-07-24T02:22:54;0.00;0.00;0.00
65361;PMS5003;51961;54.960;73.462;2022-07-24T02:25:57;0.00;0.00;0.00
65361;PMS5003;51961;54.960;73.462;2022-07-24T02:28:59;0.00;0.00;0.00
65361;PMS5003;51961;54.960;73.462;2022-07-24T02:32:01;1.50;0.00;0.00
65361;PMS5003;51961;54.960;73.462;2022-07-24T02:35:08;0.00;0.00;0.00
65361;PMS5003;51961;54.960;73.462;2022-07-24T02:38:10;0.00;0.00;0.00
65361;PMS5003;51961;54.960;73.462;2022-07-24T02:41:12;0.00;0.00;0.00
65361;PMS5003;51961;54.960;73.462;2022-07-24T02:44:14;0.00;0.00;0.00
65361;PMS5003;51961;54.960;73.462;2022-07-24T02:47:26;0.00;0.00;0.00
65361;PMS5003;51961;54.960;73.462;2022-07-24T02:50:30;0.00;0.00;0.00
65361;PMS5003;51961;54.960;73.462;2022-07-24T02:53:33;0.00;0.00;0.00
65361;PMS5003;51961;54.960;73.462;2022-07-24T02:56:35;0.00;0.00;0.00
65361;PMS5003;51961;54.960;73.462;2022-07-24T02:59:47;0.00;0.00;0.00
65361;PMS5003;51961;54.960;73.462;2022-07-24T03:02:53;0.00;0.00;0.00
65361;PMS5003;51961;54.960;73.462;2022-07-24T03:05:56;0.00;0.00;0.00
65361;PMS5003;51961;54.960;73.462;2022-07-24T03:09:09;0.00;0.00;0.00
65361;PMS5003;51961;54.960;73.462;2022-07-24T03:12:11;0.00;0.00;0.00
65361;PMS5003;51961;54.960;73.462;2022-07-24T03:15:18;0.00;0.00;0.00
65361;PMS5003;51961;54.960;73.462;2022-07-24T03:18:20;0.00;0.00;0.00
65361;PMS5003;51961;54.960;73.462;2022-07-24T03:21:21;0.00;0.00;0.00
65361;PMS5003;51961;54.960;73.462;2022-07-24T03:24:23;0.00;0.00;0.00
65361;PMS5003;51961;54.960;73.462;2022-07-24T03:27:42;0.00;0.00;0.00
65361;PMS5003;51961;54.960;73.462;2022-07-24T03:30:54;0.00;0.00;0.00
65361;PMS5003;51961;54.960;73.462;2022-07-24T03:33:55;0.00;0.00;0.00
65361;PMS5003;51961;54.960;73.462;2022-07-24T03:37:02;0.00;0.00;0.00
65361;PMS5003;51961;54.960;73.462;2022-07-24T03:40:04;0.00;0.00;0.00
65361;PMS5003;51961;54.960;73.462;2022-07-24T03:43:17;0.00;0.00;0.00
65361;PMS5003;51961;54.960;73.462;2022-07-24T03:46:19;0.00;0.00;0.00
65361;PMS5003;51961;54.960;73.462;2022-07-24T03:49:21;0.00;0.00;0.00
65361;PMS5003;51961;54.960;73.462;2022-07-24T03:52:23;0.00;0.00;0.00
65361;PMS5003;51961;54.960;73.462;2022-07-24T03:55:26;0.00;0.00;0.00
65361;PMS5003;51961;54.960;73.462;2022-07-24T03:58:28;0.00;0.00;0.00
65361;PMS5003;51961;54.960;73.462;2022-07-24T04:01:30;0.00;0.00;0.00
65361;PMS5003;51961;54.960;73.462;2022-07-24T04:04:34;0.25;0.00;0.00
65361;PMS5003;51961;54.960;73.462;2022-07-24T04:07:36;0.00;0.00;0.00
65361;PMS5003;51961;54.960;73.462;2022-07-24T04:10:47;0.33;0.00;0.00
65361;PMS5003;51961;54.960;73.462;2022-07-24T04:13:59;0.00;0.00;0.00
65361;PMS5003;51961;54.960;73.462;2022-07-24T04:17:00;0.00;0.00;0.00
65361;PMS5003;51961;54.960;73.462;2022-07-24T04:20:03;0.00;0.00;0.00
65361;PMS5003;51961;54.960;73.462;2022-07-24T04:23:05;0.00;0.00;0.00
65361;PMS5003;51961;54.960;73.462;2022-07-24T04:26:12;0.00;0.00;0.00
65361;PMS5003;51961;54.960;73.462;2022-07-24T04:29:14;0.00;0.00;0.00
65361;PMS5003;51961;54.960;73.462;2022-07-24T04:32:16;0.00;0.00;0.00
65361;PMS5003;51961;54.960;73.462;2022-07-24T04:35:29;0.00;0.00;0.00
65361;PMS5003;51961;54.960;73.462;2022-07-24T04:38:41;0.00;0.00;0.00
65361;PMS5003;51961;54.960;73.462;2022-07-24T04:41:42;0.00;0.00;0.00
65361;PMS5003;51961;54.960;73.462;2022-07-24T04:44:46;0.00;0.00;0.00
65361;PMS5003;51961;54.960;73.462;2022-07-24T04:47:48;0.00;0.00;0.00
65361;PMS5003;51961;54.960;73.462;2022-07-24T04:50:51;0.00;0.00;0.00
65361;PMS5003;51961;54.960;73.462;2022-07-24T04:53:55;0.00;0.00;0.00
65361;PMS5003;51961;54.960;73.462;2022-07-24T04:56:57;1.00;0.00;0.00
65361;PMS5003;51961;54.960;73.462;2022-07-24T04:59:59;1.25;0.00;0.00
65361;PMS5003;51961;54.960;73.462;2022-07-24T05:03:01;0.00;0.00;0.00
65361;PMS5003;51961;54.960;73.462;2022-07-24T05:06:03;0.00;0.00;0.00
65361;PMS5003;51961;54.960;73.462;2022-07-24T05:09:11;0.00;0.00;0.00
65361;PMS5003;51961;54.960;73.462;2022-07-24T05:12:12;0.00;0.00;0.00
65361;PMS5003;51961;54.960;73.462;2022-07-24T05:15:19;0.00;0.00;0.00
65361;PMS5003;51961;54.960;73.462;2022-07-24T05:18:31;0.00;0.00;0.00
65361;PMS5003;51961;54.960;73.462;2022-07-24T05:21:42;0.00;0.00;0.00
65361;PMS5003;51961;54.960;73.462;2022-07-24T05:24:45;0.00;0.00;0.00
65361;PMS5003;51961;54.960;73.462;2022-07-24T05:27:57;0.00;0.00;0.00
65361;PMS5003;51961;54.960;73.462;2022-07-24T05:31:00;0.00;0.00;0.00
65361;PMS5003;51961;54.960;73.462;2022-07-24T05:34:03;0.00;0.00;0.00
65361;PMS5003;51961;54.960;73.462;2022-07-24T05:37:15;0.00;0.00;0.00
65361;PMS5003;51961;54.960;73.462;2022-07-24T05:40:17;0.00;0.00;0.00
65361;PMS5003;51961;54.960;73.462;2022-07-24T05:43:19;0.00;0.00;0.00
65361;PMS5003;51961;54.960;73.462;2022-07-24T05:46:22;0.00;0.00;0.00
65361;PMS5003;51961;54.960;73.462;2022-07-24T05:49:34;0.75;0.00;0.00
65361;PMS5003;51961;54.960;73.462;2022-07-24T05:52:36;0.00;0.00;0.00
65361;PMS5003;51961;54.960;73.462;2022-07-24T05:55:38;0.00;0.00;0.00
65361;PMS5003;51961;54.960;73.462;2022-07-24T05:58:40;0.00;0.00;0.00
65361;PMS5003;51961;54.960;73.462;2022-07-24T06:01:52;0.00;0.00;0.00
65361;PMS5003;51961;54.960;73.462;2022-07-24T06:04:54;0.00;0.00;0.00
65361;PMS5003;51961;54.960;73.462;2022-07-24T06:07:56;0.00;0.00;0.00
65361;PMS5003;51961;54.960;73.462;2022-07-24T06:10:58;0.67;0.67;0.00
65361;PMS5003;51961;54.960;73.462;2022-07-24T06:14:10;0.00;0.00;0.00
65361;PMS5003;51961;54.960;73.462;2022-07-24T06:17:16;0.00;0.00;0.00
65361;PMS5003;51961;54.960;73.462;2022-07-24T06:20:18;0.00;0.00;0.00
65361;PMS5003;51961;54.960;73.462;2022-07-24T06:23:30;0.00;0.00;0.00
65361;PMS5003;51961;54.960;73.462;2022-07-24T06:26:33;0.00;0.00;0.00
65361;PMS5003;51961;54.960;73.462;2022-07-24T06:29:36;0.00;0.00;0.00
65361;PMS5003;51961;54.960;73.462;2022-07-24T06:32:38;0.00;0.00;0.00
65361;PMS5003;51961;54.960;73.462;2022-07-24T06:35:40;0.00;0.00;0.00
65361;PMS5003;51961;54.960;73.462;2022-07-24T06:38:41;0.00;0.00;0.00
65361;PMS5003;51961;54.960;73.462;2022-07-24T06:41:44;0.00;0.00;0.00
65361;PMS5003;51961;54.960;73.462;2022-07-24T06:44:59;0.00;0.00;0.00
65361;PMS5003;51961;54.960;73.462;2022-07-24T06:48:01;0.00;0.00;0.00
65361;PMS5003;51961;54.960;73.462;2022-07-24T06:51:08;1.00;1.00;0.00
65361;PMS5003;51961;54.960;73.462;2022-07-24T06:54:20;0.00;0.00;0.00
65361;PMS5003;51961;54.960;73.462;2022-07-24T06:57:22;0.00;0.00;0.00
65361;PMS5003;51961;54.960;73.462;2022-07-24T07:00:24;0.00;0.00;0.00
65361;PMS5003;51961;54.960;73.462;2022-07-24T07:03:27;0.25;0.00;0.00
65361;PMS5003;51961;54.960;73.462;2022-07-24T07:06:29;0.00;0.00;0.00
65361;PMS5003;51961;54.960;73.462;2022-07-24T07:09:31;0.00;0.00;0.00
65361;PMS5003;51961;54.960;73.462;2022-07-24T07:12:33;0.00;0.00;0.00
65361;PMS5003;51961;54.960;73.462;2022-07-24T07:15:34;0.00;0.00;0.00
65361;PMS5003;51961;54.960;73.462;2022-07-24T07:18:37;2.25;2.00;0.00
65361;PMS5003;51961;54.960;73.462;2022-07-24T07:21:39;0.00;0.00;0.00
65361;PMS5003;51961;54.960;73.462;2022-07-24T07:24:41;0.00;0.00;0.00
65361;PMS5003;51961;54.960;73.462;2022-07-24T07:27:43;0.00;0.00;0.00
65361;PMS5003;51961;54.960;73.462;2022-07-24T07:30:45;0.00;0.00;0.00
65361;PMS5003;51961;54.960;73.462;2022-07-24T07:33:47;1.00;1.00;0.00
65361;PMS5003;51961;54.960;73.462;2022-07-24T07:36:50;2.00;1.00;0.00
65361;PMS5003;51961;54.960;73.462;2022-07-24T07:40:02;2.00;2.00;0.00
65361;PMS5003;51961;54.960;73.462;2022-07-24T07:43:15;4.25;3.00;0.00
65361;PMS5003;51961;54.960;73.462;2022-07-24T07:46:17;3.00;2.00;0.00
65361;PMS5003;51961;54.960;73.462;2022-07-24T07:49:20;3.25;1.00;0.00
65361;PMS5003;51961;54.960;73.462;2022-07-24T07:52:23;1.00;1.00;0.00
65361;PMS5003;51961;54.960;73.462;2022-07-24T07:55:25;2.75;2.75;0.00
65361;PMS5003;51961;54.960;73.462;2022-07-24T07:58:27;2.00;1.00;0.00
65361;PMS5003;51961;54.960;73.462;2022-07-24T08:01:30;3.00;1.00;0.00
65361;PMS5003;51961;54.960;73.462;2022-07-24T08:04:32;2.00;1.00;0.00
65361;PMS5003;51961;54.960;73.462;2022-07-24T08:07:44;3.00;2.00;0.00
65361;PMS5003;51961;54.960;73.462;2022-07-24T08:10:46;3.00;1.50;0.00
65361;PMS5003;51961;54.960;73.462;2022-07-24T08:13:58;3.50;3.00;0.00
65361;PMS5003;51961;54.960;73.462;2022-07-24T08:17:00;1.00;0.00;0.00
65361;PMS5003;51961;54.960;73.462;2022-07-24T08:20:02;1.00;1.00;0.00
65361;PMS5003;51961;54.960;73.462;2022-07-24T08:23:05;0.00;0.00;0.00
65361;PMS5003;51961;54.960;73.462;2022-07-24T08:26:06;0.00;0.00;0.00
65361;PMS5003;51961;54.960;73.462;2022-07-24T08:29:08;0.00;0.00;0.00
65361;PMS5003;51961;54.960;73.462;2022-07-24T08:32:10;0.00;0.00;0.00
65361;PMS5003;51961;54.960;73.462;2022-07-24T08:35:12;0.00;0.00;0.00
65361;PMS5003;51961;54.960;73.462;2022-07-24T08:38:15;0.00;0.00;0.00
65361;PMS5003;51961;54.960;73.462;2022-07-24T08:41:18;0.00;0.00;0.00
65361;PMS5003;51961;54.960;73.462;2022-07-24T08:44:20;1.25;0.00;0.00
65361;PMS5003;51961;54.960;73.462;2022-07-24T08:47:22;4.00;2.00;0.00
65361;PMS5003;51961;54.960;73.462;2022-07-24T08:50:27;1.00;1.00;0.00
65361;PMS5003;51961;54.960;73.462;2022-07-24T08:53:29;1.00;1.00;0.00
65361;PMS5003;51961;54.960;73.462;2022-07-24T08:56:32;1.50;1.50;0.00
65361;PMS5003;51961;54.960;73.462;2022-07-24T08:59:38;1.00;1.00;0.00
65361;PMS5003;51961;54.960;73.462;2022-07-24T09:02:40;0.00;0.00;0.00
65361;PMS5003;51961;54.960;73.462;2022-07-24T09:05:58;0.00;0.00;0.00
65361;PMS5003;51961;54.960;73.462;2022-07-24T09:09:01;0.00;0.00;0.00
65361;PMS5003;51961;54.960;73.462;2022-07-24T09:15:13;3.00;2.00;0.00
65361;PMS5003;51961;54.960;73.462;2022-07-24T09:18:25;2.00;0.50;0.00
65361;PMS5003;51961;54.960;73.462;2022-07-24T09:21:27;3.00;2.50;0.00
65361;PMS5003;51961;54.960;73.462;2022-07-24T09:25:25;3.00;3.00;1.00
65361;PMS5003;51961;54.960;73.462;2022-07-24T09:28:20;4.25;3.50;1.00
65361;PMS5003;51961;54.960;73.462;2022-07-24T09:31:22;4.00;4.00;1.00
65361;PMS5003;51961;54.960;73.462;2022-07-24T09:34:25;5.00;4.75;2.00
65361;PMS5003;51961;54.960;73.462;2022-07-24T09:37:27;5.00;2.00;1.00
65361;PMS5003;51961;54.960;73.462;2022-07-24T09:40:31;4.75;3.00;0.00
65361;PMS5003;51961;54.960;73.462;2022-07-24T09:43:34;4.00;3.00;1.00
65361;PMS5003;51961;54.960;73.462;2022-07-24T09:46:37;6.00;5.00;0.33
65361;PMS5003;51961;54.960;73.462;2022-07-24T09:49:39;4.00;4.00;1.00
65361;PMS5003;51961;54.960;73.462;2022-07-24T09:52:42;3.00;3.00;2.00
65361;PMS5003;51961;54.960;73.462;2022-07-24T09:55:44;3.00;3.00;0.50
65361;PMS5003;51961;54.960;73.462;2022-07-24T09:58:48;5.00;5.00;0.00
65361;PMS5003;51961;54.960;73.462;2022-07-24T10:01:51;7.00;6.00;2.00
65361;PMS5003;51961;54.960;73.462;2022-07-24T10:04:55;5.25;5.00;2.00
65361;PMS5003;51961;54.960;73.462;2022-07-24T10:07:58;7.00;7.00;2.00
65361;PMS5003;51961;54.960;73.462;2022-07-24T10:11:08;7.00;6.00;3.00
65361;PMS5003;51961;54.960;73.462;2022-07-24T10:14:21;4.00;3.00;2.00
65361;PMS5003;51961;54.960;73.462;2022-07-24T10:20:58;5.25;5.00;1.00
65361;PMS5003;51961;54.960;73.462;2022-07-24T10:27:23;6.25;6.25;2.00
65361;PMS5003;51961;54.960;73.462;2022-07-24T10:30:27;7.00;6.50;2.50
65361;PMS5003;51961;54.960;73.462;2022-07-24T10:33:29;6.50;6.50;3.50
65361;PMS5003;51961;54.960;73.462;2022-07-24T10:43:15;6.00;4.00;2.00
65361;PMS5003;51961;54.960;73.462;2022-07-24T10:46:20;5.00;4.00;2.00
65361;PMS5003;51961;54.960;73.462;2022-07-24T10:50:05;6.00;4.75;2.25
65361;PMS5003;51961;54.960;73.462;2022-07-24T10:52:55;4.00;4.00;2.00
65361;PMS5003;51961;54.960;73.462;2022-07-24T10:56:16;5.67;5.67;1.00
65361;PMS5003;51961;54.960;73.462;2022-07-24T10:59:32;5.75;3.50;0.00
65361;PMS5003;51961;54.960;73.462;2022-07-24T11:02:35;4.00;3.75;0.00
65361;PMS5003;51961;54.960;73.462;2022-07-24T11:05:41;4.67;4.67;0.00
65361;PMS5003;51961;54.960;73.462;2022-07-24T11:09:00;7.00;7.00;1.75
65361;PMS5003;51961;54.960;73.462;2022-07-24T11:12:04;6.75;4.50;2.00
65361;PMS5003;51961;54.960;73.462;2022-07-24T11:15:08;7.00;6.00;2.00
65361;PMS5003;51961;54.960;73.462;2022-07-24T11:19:23;5.00;4.00;1.00
65361;PMS5003;51961;54.960;73.462;2022-07-24T11:22:04;6.50;5.75;3.00
65361;PMS5003;51961;54.960;73.462;2022-07-24T11:25:10;9.00;6.00;4.00
65361;PMS5003;51961;54.960;73.462;2022-07-24T11:28:18;7.00;5.00;2.00
65361;PMS5003;51961;54.960;73.462;2022-07-24T11:31:26;5.00;5.00;2.00
65361;PMS5003;51961;54.960;73.462;2022-07-24T11:34:38;6.00;5.00;2.00
65361;PMS5003;51961;54.960;73.462;2022-07-24T11:37:44;5.00;4.50;2.00
65361;PMS5003;51961;54.960;73.462;2022-07-24T11:40:47;5.50;4.75;3.25
65361;PMS5003;51961;54.960;73.462;2022-07-24T11:43:50;5.00;5.00;2.00
65361;PMS5003;51961;54.960;73.462;2022-07-24T11:46:52;3.75;3.75;1.00
65361;PMS5003;51961;54.960;73.462;2022-07-24T11:49:58;7.00;6.00;2.00
65361;PMS5003;51961;54.960;73.462;2022-07-24T11:53:04;9.25;6.00;3.00
65361;PMS5003;51961;54.960;73.462;2022-07-24T11:56:08;8.00;7.00;4.00
65361;PMS5003;51961;54.960;73.462;2022-07-24T11:59:24;9.25;7.75;3.75
65361;PMS5003;51961;54.960;73.462;2022-07-24T12:02:27;9.75;8.75;4.25
65361;PMS5003;51961;54.960;73.462;2022-07-24T12:05:36;6.25;5.75;2.00
65361;PMS5003;51961;54.960;73.462;2022-07-24T12:08:42;6.25;5.25;3.00
65361;PMS5003;51961;54.960;73.462;2022-07-24T12:11:44;7.00;6.00;3.00
65361;PMS5003;51961;54.960;73.462;2022-07-24T12:14:46;4.75;4.75;3.00
65361;PMS5003;51961;54.960;73.462;2022-07-24T12:21:00;7.50;6.75;3.00
65361;PMS5003;51961;54.960;73.462;2022-07-24T12:24:02;7.25;7.00;3.00
65361;PMS5003;51961;54.960;73.462;2022-07-24T12:27:36;10.00;8.00;4.50
65361;PMS5003;51961;54.960;73.462;2022-07-24T12:30:44;12.00;8.00;4.00
65361;PMS5003;51961;54.960;73.462;2022-07-24T12:33:52;10.00;7.00;4.00
65361;PMS5003;51961;54.960;73.462;2022-07-24T12:36:56;9.50;8.00;2.75
65361;PMS5003;51961;54.960;73.462;2022-07-24T12:40:04;8.00;7.00;4.00
65361;PMS5003;51961;54.960;73.462;2022-07-24T12:43:08;8.00;7.50;4.00
65361;PMS5003;51961;54.960;73.462;2022-07-24T12:46:28;8.00;7.25;3.00
65361;PMS5003;51961;54.960;73.462;2022-07-24T12:49:41;10.75;8.00;3.25
65361;PMS5003;51961;54.960;73.462;2022-07-24T12:52:43;8.25;6.50;3.00
65361;PMS5003;51961;54.960;73.462;2022-07-24T12:56:01;9.00;7.00;3.00
65361;PMS5003;51961;54.960;73.462;2022-07-24T12:59:04;9.50;9.25;3.50
65361;PMS5003;51961;54.960;73.462;2022-07-24T13:02:10;10.75;9.00;4.00
65361;PMS5003;51961;54.960;73.462;2022-07-24T13:05:40;7.50;7.00;3.00
65361;PMS5003;51961;54.960;73.462;2022-07-24T13:08:53;7.75;7.00;4.00
65361;PMS5003;51961;54.960;73.462;2022-07-24T13:11:56;7.00;6.00;3.00
65361;PMS5003;51961;54.960;73.462;2022-07-24T13:14:57;8.00;7.00;3.00
65361;PMS5003;51961;54.960;73.462;2022-07-24T13:17:59;9.00;6.50;3.00
65361;PMS5003;51961;54.960;73.462;2022-07-24T13:21:06;7.75;7.00;3.00
65361;PMS5003;51961;54.960;73.462;2022-07-24T13:24:09;7.00;7.00;2.00
65361;PMS5003;51961;54.960;73.462;2022-07-24T13:27:12;6.75;6.50;2.00
65361;PMS5003;51961;54.960;73.462;2022-07-24T13:30:15;7.00;6.00;3.50
65361;PMS5003;51961;54.960;73.462;2022-07-24T13:33:18;5.00;5.00;3.00
65361;PMS5003;51961;54.960;73.462;2022-07-24T13:36:20;7.75;7.75;3.00
65361;PMS5003;51961;54.960;73.462;2022-07-24T13:39:25;8.00;8.00;3.00
65361;PMS5003;51961;54.960;73.462;2022-07-24T13:42:28;7.25;7.00;3.00
65361;PMS5003;51961;54.960;73.462;2022-07-24T13:45:31;11.00;8.00;4.00
65361;PMS5003;51961;54.960;73.462;2022-07-24T13:48:33;7.50;6.50;3.00
65361;PMS5003;51961;54.960;73.462;2022-07-24T13:51:36;8.25;7.25;3.25
65361;PMS5003;51961;54.960;73.462;2022-07-24T13:54:38;9.00;7.00;3.50
65361;PMS5003;51961;54.960;73.462;2022-07-24T13:57:41;7.00;5.25;3.25
65361;PMS5003;51961;54.960;73.462;2022-07-24T14:00:44;11.50;8.25;4.00
65361;PMS5003;51961;54.960;73.462;2022-07-24T14:03:47;10.00;8.50;5.00
65361;PMS5003;51961;54.960;73.462;2022-07-24T14:06:50;9.50;7.00;4.00
65361;PMS5003;51961;54.960;73.462;2022-07-24T14:09:53;8.00;7.00;2.00
65361;PMS5003;51961;54.960;73.462;2022-07-24T14:12:56;7.00;6.00;2.50
65361;PMS5003;51961;54.960;73.462;2022-07-24T14:15:59;9.00;8.00;4.00
65361;PMS5003;51961;54.960;73.462;2022-07-24T14:19:07;8.00;7.00;4.50
65361;PMS5003;51961;54.960;73.462;2022-07-24T14:22:09;7.50;7.00;3.25
65361;PMS5003;51961;54.960;73.462;2022-07-24T14:25:12;9.00;8.00;4.00
65361;PMS5003;51961;54.960;73.462;2022-07-24T14:28:15;9.00;7.75;4.00
65361;PMS5003;51961;54.960;73.462;2022-07-24T14:31:17;8.00;7.00;3.50
65361;PMS5003;51961;54.960;73.462;2022-07-24T14:34:19;8.50;5.75;4.00
65361;PMS5003;51961;54.960;73.462;2022-07-24T14:37:27;6.00;5.00;3.00
65361;PMS5003;51961;54.960;73.462;2022-07-24T14:40:29;7.00;5.00;3.00
65361;PMS5003;51961;54.960;73.462;2022-07-24T14:43:32;7.00;6.75;2.00
65361;PMS5003;51961;54.960;73.462;2022-07-24T14:46:40;8.75;8.75;3.00
65361;PMS5003;51961;54.960;73.462;2022-07-24T14:49:42;6.75;6.00;2.25
65361;PMS5003;51961;54.960;73.462;2022-07-24T14:52:46;8.00;7.00;3.00
65361;PMS5003;51961;54.960;73.462;2022-07-24T14:55:49;7.50;6.75;3.00
65361;PMS5003;51961;54.960;73.462;2022-07-24T14:58:52;8.50;8.50;4.00
65361;PMS5003;51961;54.960;73.462;2022-07-24T15:02:00;11.00;10.00;3.50
65361;PMS5003;51961;54.960;73.462;2022-07-24T15:05:13;14.00;8.25;3.75
65361;PMS5003;51961;54.960;73.462;2022-07-24T15:08:16;10.00;7.00;4.00
65361;PMS5003;51961;54.960;73.462;2022-07-24T15:11:18;6.00;5.00;2.25
65361;PMS5003;51961;54.960;73.462;2022-07-24T15:14:22;9.25;6.50;3.25
65361;PMS5003;51961;54.960;73.462;2022-07-24T15:17:25;9.00;7.25;3.00
65361;PMS5003;51961;54.960;73.462;2022-07-24T15:20:31;10.50;8.75;4.00
65361;PMS5003;51961;54.960;73.462;2022-07-24T15:23:43;9.50;8.75;4.00
65361;PMS5003;51961;54.960;73.462;2022-07-24T15:26:54;10.75;8.00;4.00
65361;PMS5003;51961;54.960;73.462;2022-07-24T15:29:57;8.00;8.00;5.00
65361;PMS5003;51961;54.960;73.462;2022-07-24T15:32:59;11.00;7.67;4.00
65361;PMS5003;51961;54.960;73.462;2022-07-24T15:36:04;9.75;7.75;3.00
65361;PMS5003;51961;54.960;73.462;2022-07-24T15:39:08;8.00;7.25;3.75
65361;PMS5003;51961;54.960;73.462;2022-07-24T15:42:10;11.00;8.00;4.00
65361;PMS5003;51961;54.960;73.462;2022-07-24T15:45:12;10.00;9.00;4.00
65361;PMS5003;51961;54.960;73.462;2022-07-24T15:48:16;11.00;9.00;5.00
65361;PMS5003;51961;54.960;73.462;2022-07-24T15:51:18;8.75;7.50;4.00
65361;PMS5003;51961;54.960;73.462;2022-07-24T15:54:21;12.50;9.00;5.00
65361;PMS5003;51961;54.960;73.462;2022-07-24T15:57:28;15.00;10.25;5.00
65361;PMS5003;51961;54.960;73.462;2022-07-24T16:00:34;15.00;11.75;4.00
65361;PMS5003;51961;54.960;73.462;2022-07-24T16:03:37;14.00;11.75;4.00
65361;PMS5003;51961;54.960;73.462;2022-07-24T16:06:49;15.00;12.75;5.00
65361;PMS5003;51961;54.960;73.462;2022-07-24T16:09:52;15.00;13.00;5.00
65361;PMS5003;51961;54.960;73.462;2022-07-24T16:12:54;17.00;12.50;5.00
65361;PMS5003;51961;54.960;73.462;2022-07-24T16:15:57;19.00;13.75;6.00
65361;PMS5003;51961;54.960;73.462;2022-07-24T16:19:05;19.50;15.75;7.50
65361;PMS5003;51961;54.960;73.462;2022-07-24T16:22:07;20.67;17.00;7.00
65361;PMS5003;51961;54.960;73.462;2022-07-24T16:25:10;19.00;17.00;8.00
65361;PMS5003;51961;54.960;73.462;2022-07-24T16:28:14;22.00;19.00;8.75
65361;PMS5003;51961;54.960;73.462;2022-07-24T16:31:15;22.00;18.00;7.00
65361;PMS5003;51961;54.960;73.462;2022-07-24T16:34:17;22.00;19.33;9.00
65361;PMS5003;51961;54.960;73.462;2022-07-24T16:37:21;22.50;18.00;10.25
65361;PMS5003;51961;54.960;73.462;2022-07-24T16:40:23;20.00;18.00;8.00
65361;PMS5003;51961;54.960;73.462;2022-07-24T16:43:30;20.50;17.50;7.50
65361;PMS5003;51961;54.960;73.462;2022-07-24T16:46:32;21.00;19.67;9.00
65361;PMS5003;51961;54.960;73.462;2022-07-24T16:49:34;21.00;20.00;9.67
65361;PMS5003;51961;54.960;73.462;2022-07-24T16:52:42;23.75;20.75;10.00
65361;PMS5003;51961;54.960;73.462;2022-07-24T16:55:50;21.00;18.00;9.00
65361;PMS5003;51961;54.960;73.462;2022-07-24T16:58:53;21.00;19.00;10.25
65361;PMS5003;51961;54.960;73.462;2022-07-24T17:02:01;23.00;18.75;10.00
65361;PMS5003;51961;54.960;73.462;2022-07-24T17:05:04;23.67;20.00;11.00
65361;PMS5003;51961;54.960;73.462;2022-07-24T17:08:08;26.67;21.00;12.00
65361;PMS5003;51961;54.960;73.462;2022-07-24T17:11:11;24.00;23.00;11.00
65361;PMS5003;51961;54.960;73.462;2022-07-24T17:14:13;22.00;21.00;12.00
65361;PMS5003;51961;54.960;73.462;2022-07-24T17:17:15;26.00;21.00;13.00
65361;PMS5003;51961;54.960;73.462;2022-07-24T17:20:30;30.25;27.25;14.75
65361;PMS5003;51961;54.960;73.462;2022-07-24T17:23:34;28.00;25.00;16.00
65361;PMS5003;51961;54.960;73.462;2022-07-24T17:26:37;29.50;25.75;16.00
65361;PMS5003;51961;54.960;73.462;2022-07-24T17:29:39;34.50;29.00;18.50
65361;PMS5003;51961;54.960;73.462;2022-07-24T17:32:41;33.50;28.00;19.00
65361;PMS5003;51961;54.960;73.462;2022-07-24T17:35:43;33.00;26.50;17.50
65361;PMS5003;51961;54.960;73.462;2022-07-24T17:38:46;34.00;26.00;17.00
65361;PMS5003;51961;54.960;73.462;2022-07-24T17:41:48;30.50;26.00;17.00
65361;PMS5003;51961;54.960;73.462;2022-07-24T17:44:50;27.25;24.50;16.00
65361;PMS5003;51961;54.960;73.462;2022-07-24T17:47:52;29.50;24.00;17.00
65361;PMS5003;51961;54.960;73.462;2022-07-24T17:51:01;27.00;22.00;16.00
65361;PMS5003;51961;54.960;73.462;2022-07-24T17:54:03;24.75;23.00;15.00
65361;PMS5003;51961;54.960;73.462;2022-07-24T17:57:05;23.33;21.33;14.00
65361;PMS5003;51961;54.960;73.462;2022-07-24T18:00:09;21.00;20.00;13.00
65361;PMS5003;51961;54.960;73.462;2022-07-24T18:03:21;25.50;19.50;11.00